Terminal Aerodrome Forecast
Issued by NWS

Home | Current Version | Previous Version | Text Only | Print | Product List | Glossary On
Versions: 1 2 3 4 5 6 7 8 9 10 11 12
000
FTUS45 KBOI 232336
TAFJER
TAF
KJER 232336Z 2400/2424 25007KT P6SM VCSH OVC070
     FM240200 20010KT P6SM OVC080
     FM241200 23014KT P6SM VCSH OVC050
     FM241500 24012G22KT P6SM -RA OVC040
     FM241900 25015G25KT P6SM SCT040 BKN100=

USA.gov is the U.S. government's official web portal to all federal, state and local government web resources and services.